Temp: 11.3°C   Baro: 1012.6mb
  Wind: 2.9mph   Dir: SW (217°)
  Rain: 0.0mm (0.0mm/hr)
  Solar: 69W/m2  Hum: 87%
 
Cotswold Observatory Historical Data
 
Daily Summary for February 17, 2019 Units:  Metric    English   Both
Next Day »
Daily Weekly Monthly Yearly Custom
  Current: High: Low: Average:
Temperature: 11.3 °C 12.2 °C 7.2 °C 9.1 °C
Dew Point: 9.2 °C 9.4 °C 5.4 °C 7.2 °C
Humidity: 87% 92% 82% 88%
Wind Speed: 4.7km/h 37.0km/h 0.0km/h 10.5km/h
Wind Gust: 17.7km/h 37.0km/h - -
Wind directionSW - - South
Pressure: 1012.8 hPa 1017.5 hPa 1011.4 hPa -
Precipitation: 0.0 mm      
Historical Graphs
 
 
Tabular Data for February 17, 2019
Time Temperature Dew Point Pressure Wind direction Wind Speed Wind Gust Humidity Rainfall Rate (Hourly) solar
00:04 9.8 °C 8.4 °C 1017.5 hPa SW 25.7 km/h 25.7 km/h 91% 0.0 mm 0.00 W/m2
00:09 9.8 °C 8.4 °C 1017.2 hPa SSE 7.9 km/h 17.7 km/h 91% 0.0 mm 0.00 W/m2
00:14 9.7 °C 8.3 °C 1017.2 hPa South 11.1 km/h 17.7 km/h 91% 0.0 mm 0.00 W/m2
00:19 9.7 °C 8.3 °C 1017.2 hPa South 3.2 km/h 17.7 km/h 91% 0.0 mm 0.00 W/m2
00:24 9.6 °C 8.2 °C 1016.8 hPa SSE 7.9 km/h 19.3 km/h 91% 0.0 mm 0.00 W/m2
00:29 9.5 °C 8.1 °C 1016.8 hPa SSE 6.4 km/h 8.0 km/h 91% 0.0 mm 0.00 W/m2
00:34 9.4 °C 8.0 °C 1016.8 hPa SSE 4.7 km/h 6.4 km/h 91% 0.0 mm 0.00 W/m2
00:39 9.3 °C 7.9 °C 1016.8 hPa SE 16.1 km/h 16.1 km/h 91% 0.0 mm 0.00 W/m2
00:44 9.3 °C 7.9 °C 1016.8 hPa ESE 6.4 km/h 11.3 km/h 91% 0.0 mm 0.00 W/m2
00:49 9.2 °C 7.8 °C 1016.5 hPa South 11.1 km/h 11.3 km/h 91% 0.0 mm 0.00 W/m2
00:54 9.1 °C 7.7 °C 1016.5 hPa South 3.2 km/h 9.7 km/h 91% 0.0 mm 0.00 W/m2
00:59 9.1 °C 7.7 °C 1016.5 hPa South 17.7 km/h 19.3 km/h 91% 0.0 mm 0.00 W/m2
01:04 9.1 °C 7.9 °C 1016.5 hPa South 7.9 km/h 12.9 km/h 92% 0.0 mm 0.00 W/m2
01:09 9.0 °C 7.6 °C 1016.1 hPa SSE 13.0 km/h 12.9 km/h 91% 0.0 mm 0.00 W/m2
01:14 8.9 °C 7.7 °C 1016.1 hPa SW 3.2 km/h 12.9 km/h 92% 0.0 mm 0.00 W/m2
01:19 8.9 °C 7.7 °C 1016.1 hPa South 6.4 km/h 11.3 km/h 92% 0.0 mm 0.00 W/m2
01:24 8.9 °C 7.7 °C 1016.1 hPa SSE 9.7 km/h 14.5 km/h 92% 0.0 mm 0.00 W/m2
01:29 8.9 °C 7.7 °C 1016.1 hPa South 4.7 km/h 14.5 km/h 92% 0.0 mm 0.00 W/m2
01:34 8.9 °C 7.7 °C 1016.1 hPa SSE 7.9 km/h 14.5 km/h 92% 0.0 mm 0.00 W/m2
01:39 8.8 °C 7.6 °C 1016.1 hPa SSE 9.7 km/h 9.7 km/h 92% 0.0 mm 0.00 W/m2
01:44 8.8 °C 7.6 °C 1016.1 hPa SSE 6.4 km/h 14.5 km/h 92% 0.0 mm 0.00 W/m2
01:49 8.8 °C 7.6 °C 1015.8 hPa South 9.7 km/h 14.5 km/h 92% 0.0 mm 0.00 W/m2
01:54 8.7 °C 7.5 °C 1015.8 hPa SSE 13.0 km/h 14.5 km/h 92% 0.0 mm 0.00 W/m2
01:59 8.7 °C 7.5 °C 1015.5 hPa South 7.9 km/h 17.7 km/h 92% 0.0 mm 0.00 W/m2
02:04 8.7 °C 7.5 °C 1015.5 hPa SE 6.4 km/h 12.9 km/h 92% 0.0 mm 0.00 W/m2
02:09 8.6 °C 7.4 °C 1015.5 hPa SSE 4.7 km/h 12.9 km/h 92% 0.0 mm 0.00 W/m2
02:14 8.6 °C 7.4 °C 1015.5 hPa SSE 11.1 km/h 14.5 km/h 92% 0.0 mm 0.00 W/m2
02:19 8.6 °C 7.4 °C 1015.1 hPa SE 6.4 km/h 9.7 km/h 92% 0.0 mm 0.00 W/m2
02:24 8.5 °C 7.3 °C 1015.1 hPa SE 7.9 km/h 11.3 km/h 92% 0.0 mm 0.00 W/m2
02:29 8.4 °C 7.2 °C 1015.1 hPa SSE 6.4 km/h 11.3 km/h 92% 0.0 mm 0.00 W/m2
02:34 8.4 °C 7.2 °C 1015.1 hPa SSE 6.4 km/h 12.9 km/h 92% 0.0 mm 0.00 W/m2
02:39 8.3 °C 7.1 °C 1015.1 hPa SSE 7.9 km/h 11.3 km/h 92% 0.0 mm 0.00 W/m2
02:44 8.2 °C 7.0 °C 1014.8 hPa SSE 9.7 km/h 14.5 km/h 92% 0.0 mm 0.00 W/m2
02:49 8.2 °C 7.0 °C 1014.8 hPa SSE 9.7 km/h 11.3 km/h 92% 0.0 mm 0.00 W/m2
02:54 8.1 °C 6.9 °C 1014.8 hPa SSE 6.4 km/h 6.4 km/h 92% 0.0 mm 0.00 W/m2
02:59 8.0 °C 6.8 °C 1014.4 hPa SSE 1.4 km/h 8.0 km/h 92% 0.0 mm 0.00 W/m2
03:04 8.0 °C 6.8 °C 1014.4 hPa SSE 3.2 km/h 4.8 km/h 92% 0.0 mm 0.00 W/m2
03:09 7.9 °C 6.7 °C 1014.4 hPa SE 4.7 km/h 9.7 km/h 92% 0.0 mm 0.00 W/m2
03:14 7.9 °C 6.7 °C 1014.4 hPa Calm   6.4 km/h 92% 0.0 mm 0.00 W/m2
03:19 7.9 °C 6.7 °C 1014.4 hPa SSE 1.4 km/h 8.0 km/h 92% 0.0 mm 0.00 W/m2
03:24 7.8 °C 6.6 °C 1014.4 hPa Calm   3.2 km/h 92% 0.0 mm 0.00 W/m2
03:29 7.8 °C 6.6 °C 1014.4 hPa SSE 3.2 km/h 9.7 km/h 92% 0.0 mm 0.00 W/m2
03:34 7.7 °C 6.5 °C 1014.1 hPa South 3.2 km/h 9.7 km/h 92% 0.0 mm 0.00 W/m2
03:39 7.7 °C 6.5 °C 1014.1 hPa South 6.4 km/h 9.7 km/h 92% 0.0 mm 0.00 W/m2
03:44 7.7 °C 6.5 °C 1014.1 hPa South 9.7 km/h 14.5 km/h 92% 0.0 mm 0.00 W/m2
03:49 7.7 °C 6.5 °C 1014.1 hPa SSE 9.7 km/h 12.9 km/h 92% 0.0 mm 0.00 W/m2
03:54 7.7 °C 6.5 °C 1014.1 hPa SSE 9.7 km/h 11.3 km/h 92% 0.0 mm 0.00 W/m2
03:59 7.6 °C 6.4 °C 1013.8 hPa South 7.9 km/h 12.9 km/h 92% 0.0 mm 0.00 W/m2
04:04 7.6 °C 6.4 °C 1013.8 hPa SSW 4.7 km/h 6.4 km/h 92% 0.0 mm 0.00 W/m2
04:09 7.6 °C 6.4 °C 1013.8 hPa SSE 14.5 km/h 14.5 km/h 92% 0.0 mm 0.00 W/m2
04:14 7.6 °C 6.4 °C 1013.4 hPa South 9.7 km/h 19.3 km/h 92% 0.0 mm 0.00 W/m2
04:19 7.6 °C 6.4 °C 1013.4 hPa SSE 16.3 km/h 17.7 km/h 92% 0.0 mm 0.00 W/m2
04:24 7.7 °C 6.3 °C 1013.4 hPa South 7.9 km/h 17.7 km/h 91% 0.0 mm 0.00 W/m2
04:29 8.0 °C 6.5 °C 1013.4 hPa South 11.1 km/h 17.7 km/h 90% 0.0 mm 0.00 W/m2
04:34 8.2 °C 6.5 °C 1013.4 hPa South 7.9 km/h 24.1 km/h 89% 0.0 mm 0.00 W/m2
04:39 8.2 °C 6.3 °C 1013.4 hPa SSW 7.9 km/h 16.1 km/h 88% 0.0 mm 0.00 W/m2
04:44 8.3 °C 6.3 °C 1013.1 hPa South 6.4 km/h 12.9 km/h 87% 0.0 mm 0.00 W/m2
04:49 8.2 °C 6.2 °C 1013.1 hPa South 9.7 km/h 16.1 km/h 87% 0.0 mm 0.00 W/m2
04:54 8.2 °C 6.3 °C 1013.1 hPa SSE 7.9 km/h 24.1 km/h 88% 0.0 mm 0.00 W/m2
04:59 8.1 °C 6.2 °C 1013.1 hPa South 7.9 km/h 14.5 km/h 88% 0.0 mm 0.00 W/m2
05:04 8.1 °C 6.2 °C 1013.1 hPa South 4.7 km/h 12.9 km/h 88% 0.0 mm 0.00 W/m2
05:09 8.0 °C 6.3 °C 1013.1 hPa SSW 6.4 km/h 19.3 km/h 89% 0.0 mm 0.00 W/m2
05:14 7.9 °C 6.2 °C 1013.1 hPa South 7.9 km/h 14.5 km/h 89% 0.0 mm 0.00 W/m2
05:19 7.8 °C 6.1 °C 1013.1 hPa SSE 9.7 km/h 14.5 km/h 89% 0.0 mm 0.00 W/m2
05:24 7.8 °C 6.1 °C 1012.8 hPa South 6.4 km/h 16.1 km/h 89% 0.0 mm 0.00 W/m2
05:29 7.7 °C 6.0 °C 1013.1 hPa South 3.2 km/h 14.5 km/h 89% 0.0 mm 0.00 W/m2
05:34 7.6 °C 5.9 °C 1012.8 hPa SSW 3.2 km/h 14.5 km/h 89% 0.0 mm 0.00 W/m2
05:39 7.5 °C 5.8 °C 1012.8 hPa SSE 6.4 km/h 9.7 km/h 89% 0.0 mm 0.00 W/m2
05:44 7.4 °C 5.7 °C 1012.8 hPa SSE 7.9 km/h 11.3 km/h 89% 0.0 mm 0.00 W/m2
05:49 7.3 °C 5.6 °C 1012.8 hPa SSE 14.5 km/h 14.5 km/h 89% 0.0 mm 0.00 W/m2
05:54 7.3 °C 5.6 °C 1012.8 hPa SE 4.7 km/h 12.9 km/h 89% 0.0 mm 0.00 W/m2
05:59 7.2 °C 5.5 °C 1012.8 hPa SSE 4.7 km/h 14.5 km/h 89% 0.0 mm 0.00 W/m2
06:04 7.2 °C 5.5 °C 1012.4 hPa SSE 9.7 km/h 12.9 km/h 89% 0.0 mm 0.00 W/m2
06:09 7.2 °C 5.5 °C 1012.1 hPa SSE 6.4 km/h 9.7 km/h 89% 0.0 mm 0.00 W/m2
06:14 7.2 °C 5.5 °C 1012.1 hPa SSE 6.4 km/h 14.5 km/h 89% 0.0 mm 0.00 W/m2
06:19 7.3 °C 5.6 °C 1012.1 hPa South 7.9 km/h 16.1 km/h 89% 0.0 mm 0.00 W/m2
06:24 7.3 °C 5.4 °C 1012.1 hPa SSE 9.7 km/h 14.5 km/h 88% 0.0 mm 0.00 W/m2
06:29 7.4 °C 5.5 °C 1011.7 hPa SE 11.1 km/h 16.1 km/h 88% 0.0 mm 0.00 W/m2
06:34 7.5 °C 5.5 °C 1011.7 hPa SSE 11.1 km/h 17.7 km/h 87% 0.0 mm 0.00 W/m2
06:39 7.6 °C 5.4 °C 1011.7 hPa South 19.3 km/h 19.3 km/h 86% 0.0 mm 0.00 W/m2
06:44 7.8 °C 5.6 °C 1011.7 hPa SSE 9.7 km/h 14.5 km/h 86% 0.0 mm 0.00 W/m2
06:49 7.9 °C 5.5 °C 1011.7 hPa SSE 14.3 km/h 16.1 km/h 85% 0.0 mm 0.00 W/m2
06:54 8.0 °C 5.6 °C 1011.7 hPa SSE 9.7 km/h 19.3 km/h 85% 0.0 mm 0.00 W/m2
06:59 8.1 °C 5.7 °C 1011.7 hPa SSE 7.9 km/h 14.5 km/h 85% 0.0 mm 0.00 W/m2
07:04 8.2 °C 5.7 °C 1011.7 hPa SE 14.3 km/h 19.3 km/h 84% 0.0 mm 0.00 W/m2
07:09 8.1 °C 5.6 °C 1011.7 hPa SSW 13.0 km/h 14.5 km/h 84% 0.0 mm 0.00 W/m2
07:14 8.2 °C 5.8 °C 1011.4 hPa SSW 14.3 km/h 20.9 km/h 85% 0.0 mm 0.00 W/m2
07:19 8.3 °C 5.9 °C 1011.7 hPa SSW 14.3 km/h 17.7 km/h 85% 0.0 mm 0.00 W/m2
07:24 8.4 °C 5.9 °C 1011.7 hPa South 6.4 km/h 22.5 km/h 84% 0.0 mm 7.00 W/m2
07:29 8.4 °C 5.9 °C 1011.7 hPa SE 7.9 km/h 16.1 km/h 84% 0.0 mm 12.00 W/m2
07:34 8.5 °C 6.0 °C 1011.7 hPa SE 14.3 km/h 19.3 km/h 84% 0.0 mm 18.00 W/m2
07:39 8.4 °C 5.9 °C 1011.7 hPa SSE 14.3 km/h 20.9 km/h 84% 0.0 mm 25.00 W/m2
07:44 8.5 °C 6.1 °C 1011.7 hPa SW 17.7 km/h 19.3 km/h 85% 0.0 mm 35.00 W/m2
07:49 8.6 °C 6.2 °C 1011.7 hPa SSW 7.9 km/h 22.5 km/h 85% 0.0 mm 46.00 W/m2
07:54 8.6 °C 6.2 °C 1011.7 hPa SSW 11.1 km/h 25.7 km/h 85% 0.0 mm 53.00 W/m2
07:59 8.7 °C 6.3 °C 1011.4 hPa SSW 9.7 km/h 17.7 km/h 85% 0.0 mm 67.00 W/m2
08:04 8.7 °C 6.3 °C 1011.7 hPa South 29.0 km/h 29.0 km/h 85% 0.0 mm 91.00 W/m2
08:09 8.8 °C 6.4 °C 1011.7 hPa SSE 17.7 km/h 20.9 km/h 85% 0.0 mm 107.00 W/m2
08:14 9.0 °C 6.6 °C 1011.7 hPa SSE 14.3 km/h 16.1 km/h 85% 0.0 mm 121.00 W/m2
08:19 9.1 °C 6.7 °C 1011.7 hPa South 4.7 km/h 16.1 km/h 85% 0.0 mm 134.00 W/m2
08:24 9.2 °C 6.8 °C 1011.7 hPa South 9.7 km/h 25.7 km/h 85% 0.0 mm 148.00 W/m2
08:29 9.3 °C 6.9 °C 1011.7 hPa SSE 9.7 km/h 17.7 km/h 85% 0.0 mm 160.00 W/m2
08:34 9.4 °C 7.0 °C 1011.7 hPa WSW 9.7 km/h 20.9 km/h 85% 0.0 mm 172.00 W/m2
08:39 9.5 °C 7.1 °C 1011.7 hPa SSW 6.4 km/h 22.5 km/h 85% 0.0 mm 128.00 W/m2
08:44 9.6 °C 7.2 °C 1011.7 hPa SSW 9.7 km/h 17.7 km/h 85% 0.0 mm 121.00 W/m2
08:49 9.7 °C 7.3 °C 1011.7 hPa SSW 13.0 km/h 20.9 km/h 85% 0.0 mm 121.00 W/m2
08:54 9.7 °C 7.3 °C 1011.7 hPa SSW 9.7 km/h 20.9 km/h 85% 0.0 mm 155.00 W/m2
08:59 9.8 °C 7.4 °C 1011.7 hPa SW 14.3 km/h 22.5 km/h 85% 0.0 mm 190.00 W/m2
09:04 9.8 °C 7.4 °C 1011.7 hPa SSW 19.5 km/h 25.7 km/h 85% 0.0 mm 227.00 W/m2
09:09 9.9 °C 7.5 °C 1011.7 hPa South 27.4 km/h 27.4 km/h 85% 0.0 mm 155.00 W/m2
09:14 9.9 °C 7.5 °C 1011.7 hPa SSW 7.9 km/h 11.3 km/h 85% 0.0 mm 185.00 W/m2
09:19 10.1 °C 7.7 °C 1012.1 hPa SSW 6.4 km/h 6.4 km/h 85% 0.0 mm 193.00 W/m2
09:24 10.2 °C 7.6 °C 1012.1 hPa SSW 11.1 km/h 22.5 km/h 84% 0.0 mm 127.00 W/m2
09:29 10.2 °C 7.6 °C 1012.1 hPa West 16.3 km/h 17.7 km/h 84% 0.0 mm 135.00 W/m2
09:34 10.2 °C 7.6 °C 1012.1 hPa SW 14.3 km/h 20.9 km/h 84% 0.0 mm 162.00 W/m2
09:39 10.4 °C 7.6 °C 1012.1 hPa WSW 33.8 km/h 33.8 km/h 83% 0.0 mm 244.00 W/m2
09:44 10.5 °C 7.7 °C 1012.1 hPa SW 16.3 km/h 19.3 km/h 83% 0.0 mm 190.00 W/m2
09:49 10.7 °C 7.8 °C 1012.1 hPa WSW 13.0 km/h 29.0 km/h 82% 0.0 mm 246.00 W/m2
09:54 10.8 °C 7.9 °C 1012.1 hPa SW 19.5 km/h 22.5 km/h 82% 0.0 mm 207.00 W/m2
09:59 10.9 °C 7.9 °C 1012.1 hPa WSW 20.9 km/h 20.9 km/h 82% 0.0 mm 174.00 W/m2
10:04 11.0 °C 8.0 °C 1012.1 hPa SW 13.0 km/h 25.7 km/h 82% 0.0 mm 160.00 W/m2
10:09 11.0 °C 8.0 °C 1012.1 hPa WSW 19.5 km/h 27.4 km/h 82% 0.0 mm 178.00 W/m2
10:14 11.1 °C 8.3 °C 1012.4 hPa SW 32.2 km/h 32.2 km/h 83% 0.0 mm 192.00 W/m2
10:19 11.2 °C 8.4 °C 1012.4 hPa SSW 13.0 km/h 24.1 km/h 83% 0.0 mm 329.00 W/m2
10:24 11.4 °C 8.6 °C 1012.1 hPa WSW 16.3 km/h 20.9 km/h 83% 0.0 mm 394.00 W/m2
10:29 11.6 °C 8.6 °C 1012.4 hPa SSW 4.7 km/h 29.0 km/h 82% 0.0 mm 269.00 W/m2
10:34 11.7 °C 8.9 °C 1012.4 hPa South 7.9 km/h 19.3 km/h 83% 0.0 mm 320.00 W/m2
10:39 11.8 °C 9.0 °C 1012.4 hPa WSW 4.7 km/h 27.4 km/h 83% 0.0 mm 418.00 W/m2
10:44 12.1 °C 9.1 °C 1012.4 hPa SW 3.2 km/h 20.9 km/h 82% 0.0 mm 434.00 W/m2
10:49 12.2 °C 9.2 °C 1012.4 hPa WNW 3.2 km/h 29.0 km/h 82% 0.0 mm 299.00 W/m2
10:54 12.2 °C 9.2 °C 1012.4 hPa SW 11.1 km/h 32.2 km/h 82% 0.0 mm 248.00 W/m2
10:59 12.1 °C 9.1 °C 1012.4 hPa SSW 24.1 km/h 27.4 km/h 82% 0.0 mm 229.00 W/m2
11:04 12.0 °C 9.0 °C 1012.4 hPa SW 37.0 km/h 37.0 km/h 82% 0.0 mm 225.00 W/m2
11:09 12.0 °C 9.2 °C 1012.4 hPa SW 19.5 km/h 20.9 km/h 83% 0.0 mm 200.00 W/m2
11:14 12.1 °C 9.3 °C 1012.4 hPa SW 13.0 km/h 19.3 km/h 83% 0.0 mm 188.00 W/m2
11:19 12.1 °C 9.3 °C 1012.4 hPa WSW 16.3 km/h 22.5 km/h 83% 0.0 mm 121.00 W/m2
11:24 11.9 °C 9.1 °C 1012.4 hPa WSW 11.1 km/h 19.3 km/h 83% 0.0 mm 88.00 W/m2
11:29 11.8 °C 9.2 °C 1012.4 hPa SSW 13.0 km/h 19.3 km/h 84% 0.0 mm 79.00 W/m2
11:34 11.7 °C 9.1 °C 1012.8 hPa WSW 27.4 km/h 27.4 km/h 84% 0.0 mm 46.00 W/m2
11:39 11.7 °C 9.3 °C 1012.8 hPa West 13.0 km/h 22.5 km/h 85% 0.0 mm 83.00 W/m2
11:44 11.6 °C 9.2 °C 1012.8 hPa WSW 13.0 km/h 12.9 km/h 85% 0.0 mm 58.00 W/m2
11:49 11.5 °C 9.2 °C 1012.8 hPa West 6.4 km/h 29.0 km/h 86% 0.0 mm 134.00 W/m2
11:54 11.5 °C 9.4 °C 1012.8 hPa WSW 3.2 km/h 20.9 km/h 87% 0.0 mm 109.00 W/m2
11:59 11.4 °C 9.3 °C 1012.8 hPa WSW 9.7 km/h 17.7 km/h 87% 0.0 mm 70.00 W/m2
12:04 11.4 °C 9.3 °C 1012.8 hPa West 13.0 km/h 17.7 km/h 87% 0.0 mm 60.00 W/m2
12:09 11.3 °C 9.2 °C 1012.8 hPa SW 4.7 km/h 17.7 km/h 87% 0.0 mm 67.00 W/m2